Terminal Aerodrome Forecast
Issued by NWS

Home | Current Version | Previous Version | Text Only | Print | Product List | Glossary On
Versions: 1 2 3 4 5 6 7 8 9 10 11 12 13 14 15
000
FTUS41 KBOX 252326
TAFFMH
TAF
KFMH 252326Z 2600/2624 22011KT P6SM VCSH FEW010 BKN120
     FM260200 21009KT 5SM BR VCSH BKN008 OVC120
     FM260400 22009KT 3SM BR BKN008
     FM261000 25009KT 3SM BR SCT008
     FM261200 27007KT P6SM FEW250=

USA.gov is the U.S. government's official web portal to all federal, state and local government web resources and services.